sensor_id;sensor_type;location;lat;lon;timestamp;temperature;humidity
70947;DHT22;58605;48.700;8.760;2023-03-01T00:01:37;-2.30;90.30
70947;DHT22;58605;48.700;8.760;2023-03-01T00:04:04;-2.20;90.30
70947;DHT22;58605;48.700;8.760;2023-03-01T00:06:30;-2.30;89.80
70947;DHT22;58605;48.700;8.760;2023-03-01T00:08:56;-2.30;89.90
70947;DHT22;58605;48.700;8.760;2023-03-01T00:11:24;-2.30;89.70
70947;DHT22;58605;48.700;8.760;2023-03-01T00:13:52;-2.40;88.80
70947;DHT22;58605;48.700;8.760;2023-03-01T00:16:20;-2.50;89.20
70947;DHT22;58605;48.700;8.760;2023-03-01T00:18:46;-2.40;90.30
70947;DHT22;58605;48.700;8.760;2023-03-01T00:21:14;-2.40;90.50
70947;DHT22;58605;48.700;8.760;2023-03-01T00:23:40;-2.40;90.30
70947;DHT22;58605;48.700;8.760;2023-03-01T00:26:08;-2.50;90.00
70947;DHT22;58605;48.700;8.760;2023-03-01T00:28:36;-2.60;90.10
70947;DHT22;58605;48.700;8.760;2023-03-01T00:31:05;-2.60;90.50
70947;DHT22;58605;48.700;8.760;2023-03-01T00:33:31;-2.60;91.20
70947;DHT22;58605;48.700;8.760;2023-03-01T00:35:58;-2.60;91.00
70947;DHT22;58605;48.700;8.760;2023-03-01T00:38:25;-2.60;91.00
70947;DHT22;58605;48.700;8.760;2023-03-01T00:40:52;-2.50;91.70
70947;DHT22;58605;48.700;8.760;2023-03-01T00:43:18;-2.50;91.60
70947;DHT22;58605;48.700;8.760;2023-03-01T00:45:44;-2.60;91.10
70947;DHT22;58605;48.700;8.760;2023-03-01T00:48:10;-2.70;91.10
70947;DHT22;58605;48.700;8.760;2023-03-01T00:50:36;-2.80;91.40
70947;DHT22;58605;48.700;8.760;2023-03-01T00:53:02;-2.90;91.30
70947;DHT22;58605;48.700;8.760;2023-03-01T00:55:30;-2.90;91.90
70947;DHT22;58605;48.700;8.760;2023-03-01T00:57:56;-2.90;93.70
70947;DHT22;58605;48.700;8.760;2023-03-01T01:00:22;-2.70;93.80
70947;DHT22;58605;48.700;8.760;2023-03-01T01:02:48;-2.80;93.00
70947;DHT22;58605;48.700;8.760;2023-03-01T01:05:14;-2.80;93.20
70947;DHT22;58605;48.700;8.760;2023-03-01T01:07:45;-2.70;93.60
70947;DHT22;58605;48.700;8.760;2023-03-01T01:10:11;-2.70;93.80
70947;DHT22;58605;48.700;8.760;2023-03-01T01:12:44;-2.80;93.00
70947;DHT22;58605;48.700;8.760;2023-03-01T01:15:10;-3.00;92.50
70947;DHT22;58605;48.700;8.760;2023-03-01T01:17:38;-2.90;93.80
70947;DHT22;58605;48.700;8.760;2023-03-01T01:20:05;-2.90;95.40
70947;DHT22;58605;48.700;8.760;2023-03-01T01:22:32;-2.80;95.30
70947;DHT22;58605;48.700;8.760;2023-03-01T01:24:58;-2.90;94.10
70947;DHT22;58605;48.700;8.760;2023-03-01T01:27:23;-2.90;94.70
70947;DHT22;58605;48.700;8.760;2023-03-01T01:29:59;-3.00;94.40
70947;DHT22;58605;48.700;8.760;2023-03-01T01:32:31;-3.10;94.90
70947;DHT22;58605;48.700;8.760;2023-03-01T01:35:04;-3.10;95.50
70947;DHT22;58605;48.700;8.760;2023-03-01T01:37:30;-3.10;99.80
70947;DHT22;58605;48.700;8.760;2023-03-01T01:39:59;-3.10;99.90
70947;DHT22;58605;48.700;8.760;2023-03-01T01:42:26;-3.00;99.90
70947;DHT22;58605;48.700;8.760;2023-03-01T01:45:28;-3.00;97.50
70947;DHT22;58605;48.700;8.760;2023-03-01T01:47:57;-3.00;96.80
70947;DHT22;58605;48.700;8.760;2023-03-01T01:50:24;-3.00;96.10
70947;DHT22;58605;48.700;8.760;2023-03-01T01:52:51;-3.30;94.40
70947;DHT22;58605;48.700;8.760;2023-03-01T01:55:20;-3.40;96.00
70947;DHT22;58605;48.700;8.760;2023-03-01T01:57:49;-3.30;97.30
70947;DHT22;58605;48.700;8.760;2023-03-01T02:00:19;-3.30;97.80
70947;DHT22;58605;48.700;8.760;2023-03-01T02:02:48;-3.30;97.90
70947;DHT22;58605;48.700;8.760;2023-03-01T02:05:20;-3.30;98.90
70947;DHT22;58605;48.700;8.760;2023-03-01T02:07:50;-3.30;98.90
70947;DHT22;58605;48.700;8.760;2023-03-01T02:10:17;-3.20;99.90
70947;DHT22;58605;48.700;8.760;2023-03-01T02:12:43;-3.30;98.60
70947;DHT22;58605;48.700;8.760;2023-03-01T02:15:10;-3.30;98.10
70947;DHT22;58605;48.700;8.760;2023-03-01T02:17:36;-3.40;98.90
70947;DHT22;58605;48.700;8.760;2023-03-01T02:20:14;-3.30;99.90
70947;DHT22;58605;48.700;8.760;2023-03-01T02:22:43;-3.20;99.90
70947;DHT22;58605;48.700;8.760;2023-03-01T02:25:23;-3.10;99.90
70947;DHT22;58605;48.700;8.760;2023-03-01T02:27:54;-3.20;99.50
70947;DHT22;58605;48.700;8.760;2023-03-01T02:30:24;-3.10;99.90
70947;DHT22;58605;48.700;8.760;2023-03-01T02:32:52;-2.90;99.90
70947;DHT22;58605;48.700;8.760;2023-03-01T02:35:19;-2.90;99.90
70947;DHT22;58605;48.700;8.760;2023-03-01T02:37:47;-3.00;98.80
70947;DHT22;58605;48.700;8.760;2023-03-01T02:40:16;-3.20;96.90
70947;DHT22;58605;48.700;8.760;2023-03-01T02:42:51;-3.10;99.90
70947;DHT22;58605;48.700;8.760;2023-03-01T02:45:19;-3.10;99.90
70947;DHT22;58605;48.700;8.760;2023-03-01T02:47:47;-3.10;99.90
70947;DHT22;58605;48.700;8.760;2023-03-01T02:50:22;-2.90;99.90
70947;DHT22;58605;48.700;8.760;2023-03-01T02:52:57;-2.80;99.90
70947;DHT22;58605;48.700;8.760;2023-03-01T02:55:27;-2.90;99.90
70947;DHT22;58605;48.700;8.760;2023-03-01T02:57:54;-2.90;99.90
70947;DHT22;58605;48.700;8.760;2023-03-01T03:00:24;-2.90;99.90
70947;DHT22;58605;48.700;8.760;2023-03-01T03:02:54;-2.80;99.90
70947;DHT22;58605;48.700;8.760;2023-03-01T03:05:22;-2.80;99.90
70947;DHT22;58605;48.700;8.760;2023-03-01T03:07:49;-2.80;99.90
70947;DHT22;58605;48.700;8.760;2023-03-01T03:10:19;-2.80;99.90
70947;DHT22;58605;48.700;8.760;2023-03-01T03:12:49;-2.80;99.90
70947;DHT22;58605;48.700;8.760;2023-03-01T03:15:16;-2.80;99.90
70947;DHT22;58605;48.700;8.760;2023-03-01T03:17:43;-2.70;99.90
70947;DHT22;58605;48.700;8.760;2023-03-01T03:20:14;-2.60;99.90
70947;DHT22;58605;48.700;8.760;2023-03-01T03:22:45;-2.60;99.90
70947;DHT22;58605;48.700;8.760;2023-03-01T03:25:11;-2.50;99.90
70947;DHT22;58605;48.700;8.760;2023-03-01T03:27:37;-2.40;99.90
70947;DHT22;58605;48.700;8.760;2023-03-01T03:30:05;-2.40;99.90
70947;DHT22;58605;48.700;8.760;2023-03-01T03:32:35;-2.30;99.90
70947;DHT22;58605;48.700;8.760;2023-03-01T03:35:02;-2.30;99.90
70947;DHT22;58605;48.700;8.760;2023-03-01T03:37:36;-2.20;99.90
70947;DHT22;58605;48.700;8.760;2023-03-01T03:40:21;-2.20;99.90
70947;DHT22;58605;48.700;8.760;2023-03-01T03:42:47;-2.20;99.90
70947;DHT22;58605;48.700;8.760;2023-03-01T03:45:14;-2.20;99.90
70947;DHT22;58605;48.700;8.760;2023-03-01T03:47:40;-2.10;99.90
70947;DHT22;58605;48.700;8.760;2023-03-01T03:50:06;-2.10;99.90
70947;DHT22;58605;48.700;8.760;2023-03-01T03:52:32;-2.00;99.90
70947;DHT22;58605;48.700;8.760;2023-03-01T03:55:00;-2.00;99.90
70947;DHT22;58605;48.700;8.760;2023-03-01T03:57:26;-1.90;99.90
70947;DHT22;58605;48.700;8.760;2023-03-01T03:59:52;-2.00;99.90
70947;DHT22;58605;48.700;8.760;2023-03-01T04:02:18;-1.90;99.90
70947;DHT22;58605;48.700;8.760;2023-03-01T04:04:47;-2.00;99.90
70947;DHT22;58605;48.700;8.760;2023-03-01T04:07:15;-1.90;99.90
70947;DHT22;58605;48.700;8.760;2023-03-01T04:09:41;-1.90;99.90
70947;DHT22;58605;48.700;8.760;2023-03-01T04:12:10;-1.90;99.90
70947;DHT22;58605;48.700;8.760;2023-03-01T04:14:36;-2.00;99.90
70947;DHT22;58605;48.700;8.760;2023-03-01T04:17:03;-2.00;99.90
70947;DHT22;58605;48.700;8.760;2023-03-01T04:19:31;-2.00;99.90
70947;DHT22;58605;48.700;8.760;2023-03-01T04:22:01;-1.90;99.90
70947;DHT22;58605;48.700;8.760;2023-03-01T04:24:33;-1.90;99.90
70947;DHT22;58605;48.700;8.760;2023-03-01T04:26:59;-1.80;99.90
70947;DHT22;58605;48.700;8.760;2023-03-01T04:29:27;-1.80;99.90
70947;DHT22;58605;48.700;8.760;2023-03-01T04:31:53;-1.80;99.90
70947;DHT22;58605;48.700;8.760;2023-03-01T04:34:19;-1.80;99.90
70947;DHT22;58605;48.700;8.760;2023-03-01T04:36:45;-1.80;99.90
70947;DHT22;58605;48.700;8.760;2023-03-01T04:39:11;-1.70;99.90
70947;DHT22;58605;48.700;8.760;2023-03-01T04:41:40;-1.70;99.90
70947;DHT22;58605;48.700;8.760;2023-03-01T04:44:07;-1.70;99.90
70947;DHT22;58605;48.700;8.760;2023-03-01T04:46:36;-1.70;99.70
70947;DHT22;58605;48.700;8.760;2023-03-01T04:49:02;-1.70;99.60
70947;DHT22;58605;48.700;8.760;2023-03-01T04:51:29;-1.70;99.10
70947;DHT22;58605;48.700;8.760;2023-03-01T04:53:55;-1.70;99.00
70947;DHT22;58605;48.700;8.760;2023-03-01T04:56:21;-1.60;98.90
70947;DHT22;58605;48.700;8.760;2023-03-01T04:58:49;-1.60;98.10
70947;DHT22;58605;48.700;8.760;2023-03-01T05:01:16;-1.60;98.30
70947;DHT22;58605;48.700;8.760;2023-03-01T05:03:45;-1.60;98.20
70947;DHT22;58605;48.700;8.760;2023-03-01T05:06:12;-1.50;98.30
70947;DHT22;58605;48.700;8.760;2023-03-01T05:08:38;-1.50;98.20
70947;DHT22;58605;48.700;8.760;2023-03-01T05:11:05;-1.60;98.40
70947;DHT22;58605;48.700;8.760;2023-03-01T05:13:31;-1.50;98.30
70947;DHT22;58605;48.700;8.760;2023-03-01T05:15:59;-1.50;97.80
70947;DHT22;58605;48.700;8.760;2023-03-01T05:18:26;-1.60;97.70
70947;DHT22;58605;48.700;8.760;2023-03-01T05:20:56;-1.50;98.10
70947;DHT22;58605;48.700;8.760;2023-03-01T05:23:24;-1.60;99.10
70947;DHT22;58605;48.700;8.760;2023-03-01T05:25:50;-1.50;99.30
70947;DHT22;58605;48.700;8.760;2023-03-01T05:28:18;-1.50;99.10
70947;DHT22;58605;48.700;8.760;2023-03-01T05:30:45;-1.50;98.90
70947;DHT22;58605;48.700;8.760;2023-03-01T05:33:11;-1.50;99.50
70947;DHT22;58605;48.700;8.760;2023-03-01T05:35:40;-1.50;99.80
70947;DHT22;58605;48.700;8.760;2023-03-01T05:38:09;-1.50;99.90
70947;DHT22;58605;48.700;8.760;2023-03-01T05:40:39;-1.50;99.90
70947;DHT22;58605;48.700;8.760;2023-03-01T05:43:06;-1.40;99.90
70947;DHT22;58605;48.700;8.760;2023-03-01T05:45:33;-1.40;99.90
70947;DHT22;58605;48.700;8.760;2023-03-01T05:48:01;-1.30;99.60
70947;DHT22;58605;48.700;8.760;2023-03-01T05:50:29;-1.30;99.10
70947;DHT22;58605;48.700;8.760;2023-03-01T05:52:59;-1.20;99.00
70947;DHT22;58605;48.700;8.760;2023-03-01T05:55:28;-1.10;98.60
70947;DHT22;58605;48.700;8.760;2023-03-01T05:57:54;-1.10;98.20
70947;DHT22;58605;48.700;8.760;2023-03-01T06:00:21;-1.10;98.50
70947;DHT22;58605;48.700;8.760;2023-03-01T06:02:50;-1.00;97.90
70947;DHT22;58605;48.700;8.760;2023-03-01T06:05:18;-1.10;97.80
70947;DHT22;58605;48.700;8.760;2023-03-01T06:07:44;-1.00;97.60
70947;DHT22;58605;48.700;8.760;2023-03-01T06:10:11;-1.00;97.20
70947;DHT22;58605;48.700;8.760;2023-03-01T06:12:40;-0.90;96.60
70947;DHT22;58605;48.700;8.760;2023-03-01T06:15:08;-0.90;96.30
70947;DHT22;58605;48.700;8.760;2023-03-01T06:17:38;-0.90;96.30
70947;DHT22;58605;48.700;8.760;2023-03-01T06:20:07;-0.90;95.60
70947;DHT22;58605;48.700;8.760;2023-03-01T06:22:33;-1.00;95.70
70947;DHT22;58605;48.700;8.760;2023-03-01T06:24:59;-1.00;95.80
70947;DHT22;58605;48.700;8.760;2023-03-01T06:27:25;-1.00;95.60
70947;DHT22;58605;48.700;8.760;2023-03-01T06:29:53;-0.90;95.50
70947;DHT22;58605;48.700;8.760;2023-03-01T06:32:19;-0.70;95.80
70947;DHT22;58605;48.700;8.760;2023-03-01T06:34:45;-0.70;95.90
70947;DHT22;58605;48.700;8.760;2023-03-01T06:37:11;-0.60;95.70
70947;DHT22;58605;48.700;8.760;2023-03-01T06:39:37;-0.70;95.20
70947;DHT22;58605;48.700;8.760;2023-03-01T06:42:04;-0.60;95.00
70947;DHT22;58605;48.700;8.760;2023-03-01T06:44:30;-0.60;94.60
70947;DHT22;58605;48.700;8.760;2023-03-01T06:46:58;-0.60;94.40
70947;DHT22;58605;48.700;8.760;2023-03-01T06:49:25;-0.60;94.10
70947;DHT22;58605;48.700;8.760;2023-03-01T06:51:51;-0.60;93.90
70947;DHT22;58605;48.700;8.760;2023-03-01T06:54:17;-0.50;93.90
70947;DHT22;58605;48.700;8.760;2023-03-01T06:56:46;-0.30;93.70
70947;DHT22;58605;48.700;8.760;2023-03-01T06:59:12;-0.20;93.50
70947;DHT22;58605;48.700;8.760;2023-03-01T07:01:38;0.00;93.00
70947;DHT22;58605;48.700;8.760;2023-03-01T07:04:06;0.10;92.70
70947;DHT22;58605;48.700;8.760;2023-03-01T07:06:32;0.00;93.00
70947;DHT22;58605;48.700;8.760;2023-03-01T07:08:58;-0.10;92.80
70947;DHT22;58605;48.700;8.760;2023-03-01T07:11:24;-0.10;92.70
70947;DHT22;58605;48.700;8.760;2023-03-01T07:13:53;-0.30;92.60
70947;DHT22;58605;48.700;8.760;2023-03-01T07:16:21;-0.40;93.10
70947;DHT22;58605;48.700;8.760;2023-03-01T07:18:47;-0.30;93.40
70947;DHT22;58605;48.700;8.760;2023-03-01T07:21:15;-0.20;93.20
70947;DHT22;58605;48.700;8.760;2023-03-01T07:23:49;-0.20;93.10
70947;DHT22;58605;48.700;8.760;2023-03-01T07:26:15;0.10;93.20
70947;DHT22;58605;48.700;8.760;2023-03-01T07:28:41;0.20;92.90
70947;DHT22;58605;48.700;8.760;2023-03-01T07:31:07;0.30;92.50
70947;DHT22;58605;48.700;8.760;2023-03-01T07:33:33;0.30;92.40
70947;DHT22;58605;48.700;8.760;2023-03-01T07:36:05;0.50;92.00
70947;DHT22;58605;48.700;8.760;2023-03-01T07:38:33;0.60;91.80
70947;DHT22;58605;48.700;8.760;2023-03-01T07:41:01;0.50;91.50
70947;DHT22;58605;48.700;8.760;2023-03-01T07:43:28;0.30;91.10
70947;DHT22;58605;48.700;8.760;2023-03-01T07:45:54;0.20;91.40
70947;DHT22;58605;48.700;8.760;2023-03-01T07:48:20;0.40;91.60
70947;DHT22;58605;48.700;8.760;2023-03-01T07:50:46;0.50;91.20
70947;DHT22;58605;48.700;8.760;2023-03-01T07:53:13;0.60;90.80
70947;DHT22;58605;48.700;8.760;2023-03-01T07:55:40;0.60;90.60
70947;DHT22;58605;48.700;8.760;2023-03-01T07:58:13;0.10;90.20
70947;DHT22;58605;48.700;8.760;2023-03-01T08:00:39;-0.20;91.00
70947;DHT22;58605;48.700;8.760;2023-03-01T08:03:05;-0.30;91.60
70947;DHT22;58605;48.700;8.760;2023-03-01T08:05:32;-0.40;92.20
70947;DHT22;58605;48.700;8.760;2023-03-01T08:07:58;-0.40;92.10
70947;DHT22;58605;48.700;8.760;2023-03-01T08:10:24;-0.30;92.40
70947;DHT22;58605;48.700;8.760;2023-03-01T08:12:53;-0.10;92.80
70947;DHT22;58605;48.700;8.760;2023-03-01T08:15:19;-0.10;92.50
70947;DHT22;58605;48.700;8.760;2023-03-01T08:17:45;0.00;92.70
70947;DHT22;58605;48.700;8.760;2023-03-01T08:20:11;-0.10;92.30
70947;DHT22;58605;48.700;8.760;2023-03-01T08:22:38;-0.10;92.30
70947;DHT22;58605;48.700;8.760;2023-03-01T08:25:05;-0.10;92.70
70947;DHT22;58605;48.700;8.760;2023-03-01T08:27:31;-0.10;92.70
70947;DHT22;58605;48.700;8.760;2023-03-01T08:29:58;0.00;92.40
70947;DHT22;58605;48.700;8.760;2023-03-01T08:32:24;0.00;92.40
70947;DHT22;58605;48.700;8.760;2023-03-01T08:34:51;-0.10;91.80
70947;DHT22;58605;48.700;8.760;2023-03-01T08:37:17;-0.20;91.60
70947;DHT22;58605;48.700;8.760;2023-03-01T08:39:43;-0.10;92.40
70947;DHT22;58605;48.700;8.760;2023-03-01T08:42:09;0.00;92.50
70947;DHT22;58605;48.700;8.760;2023-03-01T08:44:35;0.00;92.00
70947;DHT22;58605;48.700;8.760;2023-03-01T08:47:03;0.10;92.00
70947;DHT22;58605;48.700;8.760;2023-03-01T08:49:30;0.20;91.90
70947;DHT22;58605;48.700;8.760;2023-03-01T08:51:58;0.30;91.70
70947;DHT22;58605;48.700;8.760;2023-03-01T08:54:24;0.40;91.50
70947;DHT22;58605;48.700;8.760;2023-03-01T08:56:50;0.40;91.00
70947;DHT22;58605;48.700;8.760;2023-03-01T08:59:17;0.40;91.00
70947;DHT22;58605;48.700;8.760;2023-03-01T09:01:44;0.40;90.80
70947;DHT22;58605;48.700;8.760;2023-03-01T09:04:12;0.40;90.60
70947;DHT22;58605;48.700;8.760;2023-03-01T09:06:38;0.50;90.50
70947;DHT22;58605;48.700;8.760;2023-03-01T09:09:05;0.50;90.20
70947;DHT22;58605;48.700;8.760;2023-03-01T09:11:31;0.70;90.30
70947;DHT22;58605;48.700;8.760;2023-03-01T09:13:59;0.70;89.80
70947;DHT22;58605;48.700;8.760;2023-03-01T09:16:25;0.70;88.90
70947;DHT22;58605;48.700;8.760;2023-03-01T09:18:52;0.80;88.40
70947;DHT22;58605;48.700;8.760;2023-03-01T09:21:22;0.90;88.20
70947;DHT22;58605;48.700;8.760;2023-03-01T09:23:48;1.00;87.30
70947;DHT22;58605;48.700;8.760;2023-03-01T09:26:16;1.00;86.60
70947;DHT22;58605;48.700;8.760;2023-03-01T09:28:45;1.00;87.30
70947;DHT22;58605;48.700;8.760;2023-03-01T09:31:11;0.90;87.50
70947;DHT22;58605;48.700;8.760;2023-03-01T09:33:41;1.00;87.50
70947;DHT22;58605;48.700;8.760;2023-03-01T09:36:10;1.00;86.40
70947;DHT22;58605;48.700;8.760;2023-03-01T09:38:39;1.00;85.60
70947;DHT22;58605;48.700;8.760;2023-03-01T09:41:11;1.20;86.50
70947;DHT22;58605;48.700;8.760;2023-03-01T09:43:46;1.20;85.10
70947;DHT22;58605;48.700;8.760;2023-03-01T09:46:15;1.20;85.20
70947;DHT22;58605;48.700;8.760;2023-03-01T09:48:48;1.30;85.00
70947;DHT22;58605;48.700;8.760;2023-03-01T09:51:18;1.30;84.90
70947;DHT22;58605;48.700;8.760;2023-03-01T09:53:47;1.30;85.00
70947;DHT22;58605;48.700;8.760;2023-03-01T09:56:17;1.30;84.80
70947;DHT22;58605;48.700;8.760;2023-03-01T09:58:49;1.40;83.70
70947;DHT22;58605;48.700;8.760;2023-03-01T10:01:30;1.40;83.80
70947;DHT22;58605;48.700;8.760;2023-03-01T10:04:20;1.30;82.50
70947;DHT22;58605;48.700;8.760;2023-03-01T10:06:56;1.10;81.60
70947;DHT22;58605;48.700;8.760;2023-03-01T10:09:26;1.30;84.10
70947;DHT22;58605;48.700;8.760;2023-03-01T10:11:55;1.50;84.20
70947;DHT22;58605;48.700;8.760;2023-03-01T10:14:30;1.60;83.50
70947;DHT22;58605;48.700;8.760;2023-03-01T10:17:00;1.70;82.50
70947;DHT22;58605;48.700;8.760;2023-03-01T10:19:31;1.80;82.30
70947;DHT22;58605;48.700;8.760;2023-03-01T10:22:03;2.00;82.10
70947;DHT22;58605;48.700;8.760;2023-03-01T10:24:34;1.80;80.10
70947;DHT22;58605;48.700;8.760;2023-03-01T10:27:05;1.70;80.30
70947;DHT22;58605;48.700;8.760;2023-03-01T10:29:39;1.80;80.50
70947;DHT22;58605;48.700;8.760;2023-03-01T10:32:08;1.80;80.20
70947;DHT22;58605;48.700;8.760;2023-03-01T10:34:35;1.40;79.40
70947;DHT22;58605;48.700;8.760;2023-03-01T10:37:10;1.20;80.20
70947;DHT22;58605;48.700;8.760;2023-03-01T10:39:54;1.30;80.30
70947;DHT22;58605;48.700;8.760;2023-03-01T10:42:26;1.50;81.00
70947;DHT22;58605;48.700;8.760;2023-03-01T10:44:53;1.60;81.00
70947;DHT22;58605;48.700;8.760;2023-03-01T10:47:21;1.50;80.60
70947;DHT22;58605;48.700;8.760;2023-03-01T10:49:56;1.90;81.00
70947;DHT22;58605;48.700;8.760;2023-03-01T10:52:24;2.00;79.90
70947;DHT22;58605;48.700;8.760;2023-03-01T10:54:55;2.10;79.70
70947;DHT22;58605;48.700;8.760;2023-03-01T10:57:30;2.30;79.30
70947;DHT22;58605;48.700;8.760;2023-03-01T11:00:15;2.20;79.30
70947;DHT22;58605;48.700;8.760;2023-03-01T11:02:50;2.10;78.70
70947;DHT22;58605;48.700;8.760;2023-03-01T11:05:22;1.80;77.70
70947;DHT22;58605;48.700;8.760;2023-03-01T11:07:53;2.10;78.80
70947;DHT22;58605;48.700;8.760;2023-03-01T11:10:25;2.20;78.50
70947;DHT22;58605;48.700;8.760;2023-03-01T11:12:52;2.10;78.10
70947;DHT22;58605;48.700;8.760;2023-03-01T11:15:26;2.20;79.40
70947;DHT22;58605;48.700;8.760;2023-03-01T11:17:52;2.50;77.80
70947;DHT22;58605;48.700;8.760;2023-03-01T11:20:25;2.50;77.70
70947;DHT22;58605;48.700;8.760;2023-03-01T11:22:54;2.30;76.80
70947;DHT22;58605;48.700;8.760;2023-03-01T11:25:26;1.90;77.40
70947;DHT22;58605;48.700;8.760;2023-03-01T11:27:54;2.20;79.50
70947;DHT22;58605;48.700;8.760;2023-03-01T11:30:24;2.20;78.50
70947;DHT22;58605;48.700;8.760;2023-03-01T11:33:03;2.20;77.60
70947;DHT22;58605;48.700;8.760;2023-03-01T11:35:32;2.40;79.90
70947;DHT22;58605;48.700;8.760;2023-03-01T11:38:06;2.40;77.40
70947;DHT22;58605;48.700;8.760;2023-03-01T11:40:40;2.60;78.20
70947;DHT22;58605;48.700;8.760;2023-03-01T11:43:15;2.70;77.60
70947;DHT22;58605;48.700;8.760;2023-03-01T11:48:52;2.80;77.00
70947;DHT22;58605;48.700;8.760;2023-03-01T11:51:32;3.10;76.60
70947;DHT22;58605;48.700;8.760;2023-03-01T11:54:18;3.30;75.40
70947;DHT22;58605;48.700;8.760;2023-03-01T11:56:55;3.30;74.70
70947;DHT22;58605;48.700;8.760;2023-03-01T12:02:52;3.20;74.80
70947;DHT22;58605;48.700;8.760;2023-03-01T12:05:40;3.20;74.40
70947;DHT22;58605;48.700;8.760;2023-03-01T12:08:13;3.30;74.10
70947;DHT22;58605;48.700;8.760;2023-03-01T12:10:51;3.30;75.00
70947;DHT22;58605;48.700;8.760;2023-03-01T12:13:39;3.40;74.30
70947;DHT22;58605;48.700;8.760;2023-03-01T12:16:35;3.50;73.80
70947;DHT22;58605;48.700;8.760;2023-03-01T12:19:28;3.50;74.70
70947;DHT22;58605;48.700;8.760;2023-03-01T12:22:19;3.50;74.00
70947;DHT22;58605;48.700;8.760;2023-03-01T12:25:08;3.60;74.60
70947;DHT22;58605;48.700;8.760;2023-03-01T12:28:01;3.70;73.00
70947;DHT22;58605;48.700;8.760;2023-03-01T12:30:43;3.80;74.40
70947;DHT22;58605;48.700;8.760;2023-03-01T12:33:22;3.90;73.50
70947;DHT22;58605;48.700;8.760;2023-03-01T12:38:49;4.00;72.30
70947;DHT22;58605;48.700;8.760;2023-03-01T12:41:37;4.00;72.10
70947;DHT22;58605;48.700;8.760;2023-03-01T12:44:13;4.30;72.20
70947;DHT22;58605;48.700;8.760;2023-03-01T12:46:52;4.10;70.90
70947;DHT22;58605;48.700;8.760;2023-03-01T12:49:25;3.90;72.20
70947;DHT22;58605;48.700;8.760;2023-03-01T12:51:57;3.90;73.50
70947;DHT22;58605;48.700;8.760;2023-03-01T12:54:27;4.40;72.70
70947;DHT22;58605;48.700;8.760;2023-03-01T12:56:55;4.10;71.50
70947;DHT22;58605;48.700;8.760;2023-03-01T12:59:28;4.20;71.20
70947;DHT22;58605;48.700;8.760;2023-03-01T13:02:02;4.30;70.40
70947;DHT22;58605;48.700;8.760;2023-03-01T13:04:37;4.30;71.00
70947;DHT22;58605;48.700;8.760;2023-03-01T13:07:24;4.30;71.50
70947;DHT22;58605;48.700;8.760;2023-03-01T13:10:00;4.40;70.70
70947;DHT22;58605;48.700;8.760;2023-03-01T13:12:45;4.20;70.90
70947;DHT22;58605;48.700;8.760;2023-03-01T13:15:33;4.50;70.60
70947;DHT22;58605;48.700;8.760;2023-03-01T13:18:02;4.70;70.60
70947;DHT22;58605;48.700;8.760;2023-03-01T13:20:44;4.90;70.00
70947;DHT22;58605;48.700;8.760;2023-03-01T13:23:13;4.90;69.50
70947;DHT22;58605;48.700;8.760;2023-03-01T13:26:17;4.90;69.20
70947;DHT22;58605;48.700;8.760;2023-03-01T13:28:54;4.90;68.40
70947;DHT22;58605;48.700;8.760;2023-03-01T13:34:47;4.90;68.60
70947;DHT22;58605;48.700;8.760;2023-03-01T13:37:32;4.40;68.90
70947;DHT22;58605;48.700;8.760;2023-03-01T13:40:01;4.20;70.10
70947;DHT22;58605;48.700;8.760;2023-03-01T13:42:51;4.10;69.90
70947;DHT22;58605;48.700;8.760;2023-03-01T13:45:33;4.40;71.60
70947;DHT22;58605;48.700;8.760;2023-03-01T13:48:03;4.70;69.90
70947;DHT22;58605;48.700;8.760;2023-03-01T13:50:42;4.90;69.00
70947;DHT22;58605;48.700;8.760;2023-03-01T13:53:11;5.10;68.60
70947;DHT22;58605;48.700;8.760;2023-03-01T13:55:43;5.10;67.90
70947;DHT22;58605;48.700;8.760;2023-03-01T13:58:21;5.10;68.20
70947;DHT22;58605;48.700;8.760;2023-03-01T14:00:47;4.80;67.70
70947;DHT22;58605;48.700;8.760;2023-03-01T14:03:20;4.90;68.90
70947;DHT22;58605;48.700;8.760;2023-03-01T14:06:01;5.10;68.20
70947;DHT22;58605;48.700;8.760;2023-03-01T14:08:29;5.20;67.70
70947;DHT22;58605;48.700;8.760;2023-03-01T14:11:29;5.30;68.80
70947;DHT22;58605;48.700;8.760;2023-03-01T14:14:21;5.10;68.60
70947;DHT22;58605;48.700;8.760;2023-03-01T14:16:56;5.30;68.30
70947;DHT22;58605;48.700;8.760;2023-03-01T14:19:27;5.20;68.50
70947;DHT22;58605;48.700;8.760;2023-03-01T14:22:05;5.20;68.20
70947;DHT22;58605;48.700;8.760;2023-03-01T14:24:39;5.10;68.50
70947;DHT22;58605;48.700;8.760;2023-03-01T14:27:11;5.20;68.80
70947;DHT22;58605;48.700;8.760;2023-03-01T14:29:41;5.30;68.50
70947;DHT22;58605;48.700;8.760;2023-03-01T14:32:12;5.10;69.20
70947;DHT22;58605;48.700;8.760;2023-03-01T14:34:45;5.10;69.20
70947;DHT22;58605;48.700;8.760;2023-03-01T14:37:19;5.00;68.90
70947;DHT22;58605;48.700;8.760;2023-03-01T14:39:45;5.10;69.20
70947;DHT22;58605;48.700;8.760;2023-03-01T14:42:12;5.10;68.50
70947;DHT22;58605;48.700;8.760;2023-03-01T14:44:41;5.00;69.20
70947;DHT22;58605;48.700;8.760;2023-03-01T14:47:12;5.00;70.20
70947;DHT22;58605;48.700;8.760;2023-03-01T14:49:39;5.00;69.10
70947;DHT22;58605;48.700;8.760;2023-03-01T14:52:07;5.00;69.30
70947;DHT22;58605;48.700;8.760;2023-03-01T14:54:46;4.90;69.10
70947;DHT22;58605;48.700;8.760;2023-03-01T14:57:15;4.80;69.20
70947;DHT22;58605;48.700;8.760;2023-03-01T14:59:42;4.90;69.60
70947;DHT22;58605;48.700;8.760;2023-03-01T15:02:12;4.90;69.80
70947;DHT22;58605;48.700;8.760;2023-03-01T15:04:43;5.00;69.80
70947;DHT22;58605;48.700;8.760;2023-03-01T15:07:13;5.00;69.70
70947;DHT22;58605;48.700;8.760;2023-03-01T15:09:40;5.00;69.50
70947;DHT22;58605;48.700;8.760;2023-03-01T15:12:41;5.10;69.40
70947;DHT22;58605;48.700;8.760;2023-03-01T15:15:31;5.00;68.90
70947;DHT22;58605;48.700;8.760;2023-03-01T15:17:59;5.00;69.80
70947;DHT22;58605;48.700;8.760;2023-03-01T15:20:27;5.10;69.50
70947;DHT22;58605;48.700;8.760;2023-03-01T15:22:56;5.10;69.20
70947;DHT22;58605;48.700;8.760;2023-03-01T15:25:25;5.10;69.30
70947;DHT22;58605;48.700;8.760;2023-03-01T15:27:55;5.00;68.80
70947;DHT22;58605;48.700;8.760;2023-03-01T15:30:25;5.00;70.00
70947;DHT22;58605;48.700;8.760;2023-03-01T15:35:59;5.10;69.10
70947;DHT22;58605;48.700;8.760;2023-03-01T15:38:34;5.10;69.70
70947;DHT22;58605;48.700;8.760;2023-03-01T15:41:04;5.10;69.50
70947;DHT22;58605;48.700;8.760;2023-03-01T15:43:44;5.00;69.40
70947;DHT22;58605;48.700;8.760;2023-03-01T15:46:20;5.00;69.30
70947;DHT22;58605;48.700;8.760;2023-03-01T15:48:51;4.90;70.00
70947;DHT22;58605;48.700;8.760;2023-03-01T15:51:22;4.90;70.30
70947;DHT22;58605;48.700;8.760;2023-03-01T15:53:51;4.90;69.70
70947;DHT22;58605;48.700;8.760;2023-03-01T15:56:18;4.90;70.20
70947;DHT22;58605;48.700;8.760;2023-03-01T15:58:46;4.90;70.10
70947;DHT22;58605;48.700;8.760;2023-03-01T16:01:13;4.80;70.00
70947;DHT22;58605;48.700;8.760;2023-03-01T16:03:40;4.80;70.10
70947;DHT22;58605;48.700;8.760;2023-03-01T16:06:08;4.80;70.50
70947;DHT22;58605;48.700;8.760;2023-03-01T16:08:35;4.80;70.10
70947;DHT22;58605;48.700;8.760;2023-03-01T16:11:01;4.80;70.80
70947;DHT22;58605;48.700;8.760;2023-03-01T16:13:30;4.80;69.90